createdAt,value
2017-05-25T00:00:16.465Z,74.80
2017-05-25T00:02:44.811Z,75.00
2017-05-25T00:05:13.134Z,75.20
2017-05-25T00:07:41.447Z,75.40
2017-05-25T00:10:09.024Z,75.40
2017-05-25T00:12:37.346Z,75.50
2017-05-25T00:15:05.693Z,75.50
2017-05-25T00:17:34.012Z,75.60
2017-05-25T00:20:02.365Z,75.70
2017-05-25T00:22:30.684Z,75.70
2017-05-25T00:24:59.038Z,75.80
2017-05-25T00:27:27.357Z,75.90
2017-05-25T00:29:55.684Z,75.90
2017-05-25T00:32:24.028Z,76.00
2017-05-25T00:34:52.349Z,76.30
2017-05-25T00:37:20.695Z,76.50
2017-05-25T00:39:49.083Z,76.60
2017-05-25T00:42:17.425Z,76.60
2017-05-25T00:44:45.750Z,76.80
2017-05-25T00:47:14.101Z,76.90
2017-05-25T00:49:42.431Z,77.10
2017-05-25T00:52:10.756Z,77.00
2017-05-25T00:54:39.092Z,77.10
2017-05-25T00:57:07.404Z,77.40
2017-05-25T00:59:35.745Z,77.30
2017-05-25T01:02:04.063Z,77.40
2017-05-25T01:04:32.401Z,77.40
2017-05-25T01:07:00.715Z,77.60
2017-05-25T01:09:29.056Z,78.30
2017-05-25T01:11:57.381Z,78.50
2017-05-25T01:14:25.696Z,78.40
2017-05-25T01:16:54.063Z,78.50
2017-05-25T01:19:22.393Z,78.40
2017-05-25T01:21:50.741Z,78.60
2017-05-25T01:24:19.058Z,78.70
2017-05-25T01:26:47.433Z,78.90
2017-05-25T01:29:15.764Z,79.00
2017-05-25T01:31:44.108Z,79.10
2017-05-25T01:34:12.451Z,79.10
2017-05-25T01:36:40.768Z,79.00
2017-05-25T01:39:09.116Z,79.20
2017-05-25T01:41:37.842Z,79.20
2017-05-25T01:44:06.190Z,79.40
2017-05-25T01:46:34.520Z,79.80
2017-05-25T01:49:02.846Z,79.70
2017-05-25T01:51:31.198Z,79.80
2017-05-25T01:53:59.520Z,79.90
2017-05-25T01:56:27.871Z,80.10
2017-05-25T01:58:56.245Z,80.40
2017-05-25T02:01:24.652Z,80.60
2017-05-25T02:03:53.018Z,81.00
2017-05-25T02:06:21.389Z,81.30
2017-05-25T02:08:49.777Z,81.40
2017-05-25T02:11:18.146Z,81.30
2017-05-25T02:13:46.532Z,81.30
2017-05-25T02:16:14.903Z,81.40
2017-05-25T02:18:43.299Z,81.40
2017-05-25T02:21:11.664Z,81.10
2017-05-25T02:23:40.028Z,81.10
2017-05-25T02:26:08.415Z,81.00
2017-05-25T02:28:36.796Z,80.80
2017-05-25T02:31:05.197Z,80.50
2017-05-25T02:33:33.573Z,80.70
2017-05-25T02:36:01.972Z,80.70
2017-05-25T02:38:30.344Z,80.50
2017-05-25T02:40:58.719Z,80.60
2017-05-25T02:43:27.112Z,80.60
2017-05-25T02:45:55.480Z,80.50
2017-05-25T02:48:23.894Z,80.40
2017-05-25T02:50:52.267Z,80.20
2017-05-25T02:53:20.674Z,79.90
2017-05-25T02:55:49.048Z,79.70
2017-05-25T02:58:17.416Z,79.30
2017-05-25T03:00:45.813Z,79.20
2017-05-25T03:03:14.185Z,78.90
2017-05-25T03:05:42.573Z,79.00
2017-05-25T03:08:10.944Z,78.70
2017-05-25T03:10:39.349Z,78.70
2017-05-25T03:13:07.715Z,78.80
2017-05-25T03:15:36.088Z,78.80
2017-05-25T03:18:04.478Z,78.80
2017-05-25T03:20:32.839Z,78.40
2017-05-25T03:23:01.216Z,78.60
2017-05-25T03:25:29.582Z,78.50
2017-05-25T03:27:57.966Z,78.40
2017-05-25T03:30:26.327Z,78.40
2017-05-25T03:32:55.372Z,78.00
2017-05-25T03:35:23.753Z,78.00
2017-05-25T03:37:52.111Z,78.00
2017-05-25T03:40:20.499Z,78.00
2017-05-25T03:42:48.895Z,77.90
2017-05-25T03:45:17.308Z,77.60
2017-05-25T03:47:45.680Z,77.50
2017-05-25T03:50:14.055Z,77.10
2017-05-25T03:52:42.441Z,77.00
2017-05-25T03:55:10.813Z,77.20
2017-05-25T03:57:39.205Z,77.00
2017-05-25T04:00:07.563Z,77.10
2017-05-25T04:02:35.977Z,76.50
2017-05-25T04:05:04.343Z,76.90
2017-05-25T04:07:32.710Z,76.80
2017-05-25T04:10:01.092Z,76.80
2017-05-25T04:12:29.457Z,76.80
2017-05-25T04:14:57.848Z,76.70
2017-05-25T04:17:26.213Z,76.60
2017-05-25T04:19:54.618Z,76.30
2017-05-25T04:22:22.983Z,76.10
2017-05-25T04:24:51.350Z,76.00
2017-05-25T04:27:19.739Z,75.70
2017-05-25T04:29:48.100Z,75.40
2017-05-25T04:32:16.498Z,75.20
2017-05-25T04:34:44.870Z,74.90
2017-05-25T04:37:13.279Z,74.40
2017-05-25T04:39:41.644Z,74.20
2017-05-25T04:42:10.011Z,73.90
2017-05-25T04:44:38.396Z,74.20
2017-05-25T04:47:06.758Z,73.80
2017-05-25T04:49:35.149Z,73.50
2017-05-25T04:52:03.520Z,73.10
2017-05-25T04:54:31.923Z,72.90
2017-05-25T04:57:00.293Z,72.80
2017-05-25T04:59:28.666Z,72.50
2017-05-25T05:01:57.065Z,72.10
2017-05-25T05:04:25.432Z,72.60
2017-05-25T05:06:53.822Z,71.40
2017-05-25T05:09:22.196Z,71.10
2017-05-25T05:11:50.610Z,70.50
2017-05-25T05:14:18.973Z,69.50
2017-05-25T05:16:47.341Z,69.10
2017-05-25T05:19:15.728Z,68.90
2017-05-25T05:21:44.100Z,68.50
2017-05-25T05:24:12.495Z,68.10
2017-05-25T05:26:40.858Z,68.10
2017-05-25T05:29:09.248Z,68.00
2017-05-25T05:31:37.620Z,69.10
2017-05-25T05:34:05.998Z,67.40
2017-05-25T05:36:34.391Z,67.40
2017-05-25T05:39:02.761Z,67.00
2017-05-25T05:41:31.150Z,66.30
2017-05-25T05:43:59.560Z,65.50
2017-05-25T05:46:27.975Z,65.70
2017-05-25T05:48:56.387Z,65.10
2017-05-25T05:51:24.756Z,64.70
2017-05-25T05:53:53.146Z,64.70
2017-05-25T05:56:21.515Z,65.60
2017-05-25T05:58:49.903Z,66.00
2017-05-25T06:01:18.404Z,66.10
2017-05-25T06:03:47.164Z,65.90
2017-05-25T06:06:15.610Z,65.50
2017-05-25T06:08:44.044Z,65.40
2017-05-25T06:11:12.504Z,65.10
2017-05-25T06:13:40.879Z,64.60
2017-05-25T06:16:09.275Z,64.50
2017-05-25T06:18:37.647Z,64.40
2017-05-25T06:21:06.045Z,63.80
2017-05-25T06:23:34.450Z,63.80
2017-05-25T06:26:02.841Z,63.70
2017-05-25T06:28:31.266Z,63.10
2017-05-25T06:30:59.727Z,62.40
2017-05-25T06:33:28.134Z,61.60
2017-05-25T06:35:56.511Z,60.50
2017-05-25T06:38:24.923Z,60.70
2017-05-25T06:40:53.291Z,60.70
2017-05-25T06:43:21.662Z,60.20
2017-05-25T06:45:50.067Z,60.40
2017-05-25T06:48:18.442Z,59.70
2017-05-25T06:50:46.847Z,59.50
2017-05-25T06:53:15.214Z,57.90
2017-05-25T06:55:43.622Z,57.50
2017-05-25T06:58:11.991Z,57.70
2017-05-25T07:00:40.391Z,57.90
2017-05-25T07:03:08.790Z,57.80
2017-05-25T07:05:37.173Z,58.30
2017-05-25T07:08:05.572Z,58.40
2017-05-25T07:10:33.943Z,58.00
2017-05-25T07:13:02.407Z,58.00
2017-05-25T07:15:30.784Z,56.40
2017-05-25T07:17:59.161Z,56.70
2017-05-25T07:20:27.554Z,57.10
2017-05-25T07:22:55.936Z,57.00
2017-05-25T07:25:24.327Z,56.90
2017-05-25T07:27:52.698Z,56.20
2017-05-25T07:30:21.126Z,55.90
2017-05-25T07:32:49.500Z,54.60
2017-05-25T07:35:17.863Z,55.20
2017-05-25T07:37:46.258Z,55.00
2017-05-25T07:40:14.628Z,54.40
2017-05-25T07:42:43.024Z,54.00
2017-05-25T07:45:11.397Z,54.00
2017-05-25T07:47:39.797Z,54.40
2017-05-25T07:50:07.404Z,54.40
2017-05-25T07:52:35.772Z,53.10
2017-05-25T07:55:04.216Z,53.70
2017-05-25T07:57:32.592Z,53.70
2017-05-25T08:00:00.989Z,53.20
2017-05-25T08:02:29.360Z,53.30
2017-05-25T08:04:57.778Z,53.30
2017-05-25T08:07:26.155Z,53.50
2017-05-25T08:09:54.520Z,53.10
2017-05-25T08:12:22.907Z,53.40
2017-05-25T08:14:51.476Z,52.60
2017-05-25T08:17:19.878Z,51.50
2017-05-25T08:19:48.259Z,51.10
2017-05-25T08:22:16.652Z,51.80
2017-05-25T08:24:45.069Z,51.40
2017-05-25T08:27:13.440Z,51.20
2017-05-25T08:29:42.195Z,50.90
2017-05-25T08:32:10.555Z,49.70
2017-05-25T08:34:38.971Z,50.00
2017-05-25T08:37:07.350Z,50.30
2017-05-25T08:39:35.765Z,50.70
2017-05-25T08:42:04.191Z,50.10
2017-05-25T08:44:32.563Z,49.30
2017-05-25T08:47:00.968Z,50.40
2017-05-25T08:49:29.345Z,49.00
2017-05-25T08:51:57.759Z,47.90
2017-05-25T08:54:26.125Z,48.70
2017-05-25T08:56:54.562Z,46.20
2017-05-25T08:59:22.951Z,47.00
2017-05-25T09:01:51.317Z,47.70
2017-05-25T09:04:19.953Z,46.80
2017-05-25T09:06:48.327Z,45.50
2017-05-25T09:09:16.742Z,45.00
2017-05-25T09:11:45.112Z,44.10
2017-05-25T09:14:13.483Z,44.20
2017-05-25T09:16:41.878Z,44.20
2017-05-25T09:19:10.247Z,43.50
2017-05-25T09:21:38.636Z,43.60
2017-05-25T09:24:07.012Z,43.20
2017-05-25T09:26:35.431Z,42.00
2017-05-25T09:29:03.797Z,40.80
2017-05-25T09:31:32.162Z,39.30
2017-05-25T09:34:00.547Z,40.10
2017-05-25T09:36:29.838Z,40.50
2017-05-25T09:38:58.231Z,38.40
2017-05-25T09:41:26.600Z,38.80
2017-05-25T09:43:54.996Z,39.40
2017-05-25T09:46:23.361Z,38.90
2017-05-25T09:48:51.721Z,38.40
2017-05-25T09:51:20.102Z,38.40
2017-05-25T09:53:48.471Z,39.20
2017-05-25T09:56:17.648Z,38.70
2017-05-25T09:58:46.005Z,39.30
2017-05-25T10:01:14.435Z,40.20
2017-05-25T10:03:42.799Z,39.50
2017-05-25T10:06:11.159Z,39.10
2017-05-25T10:08:39.559Z,38.80
2017-05-25T10:11:07.934Z,36.40
2017-05-25T10:13:36.323Z,37.30
2017-05-25T10:16:04.687Z,36.80
2017-05-25T10:18:33.085Z,36.00
2017-05-25T10:21:01.451Z,35.80
2017-05-25T10:23:29.821Z,36.20
2017-05-25T10:25:58.206Z,35.70
2017-05-25T10:28:26.571Z,35.30
2017-05-25T10:30:54.969Z,34.60
2017-05-25T10:33:23.327Z,34.90
2017-05-25T10:35:51.727Z,35.40
2017-05-25T10:38:20.095Z,35.70
2017-05-25T10:40:48.475Z,33.60
2017-05-25T10:43:16.866Z,33.90
2017-05-25T10:45:45.231Z,33.90
2017-05-25T10:48:13.623Z,33.40
2017-05-25T10:50:41.980Z,32.30
2017-05-25T10:53:10.375Z,31.40
2017-05-25T10:55:38.738Z,31.70
2017-05-25T10:58:07.203Z,32.70
2017-05-25T11:00:35.591Z,34.30
2017-05-25T11:03:03.967Z,34.20
2017-05-25T11:05:32.350Z,33.40
2017-05-25T11:08:00.715Z,33.80
2017-05-25T11:10:29.139Z,33.80
2017-05-25T11:12:57.506Z,33.80
2017-05-25T11:15:25.876Z,33.40
2017-05-25T11:17:54.265Z,34.00
2017-05-25T11:20:22.627Z,34.50
2017-05-25T11:22:51.043Z,34.50
2017-05-25T11:25:19.408Z,33.30
2017-05-25T11:27:47.819Z,34.00
2017-05-25T11:30:16.176Z,34.40
2017-05-25T11:32:44.546Z,34.10
2017-05-25T11:35:12.939Z,33.00
2017-05-25T11:37:41.314Z,32.50
2017-05-25T11:40:09.707Z,32.80
2017-05-25T11:42:38.077Z,33.50
2017-05-25T11:45:06.481Z,33.60
2017-05-25T11:47:34.849Z,32.60
2017-05-25T11:50:03.225Z,32.10
2017-05-25T11:52:31.612Z,32.60
2017-05-25T11:54:59.977Z,32.10
2017-05-25T11:57:28.365Z,33.30
2017-05-25T11:59:56.732Z,33.10
2017-05-25T12:02:25.123Z,32.60
2017-05-25T12:04:53.478Z,31.90
2017-05-25T12:07:21.843Z,33.30
2017-05-25T12:09:50.240Z,33.30
2017-05-25T12:12:18.612Z,33.10
2017-05-25T12:14:47.002Z,31.90
2017-05-25T12:17:15.368Z,32.00
2017-05-25T12:19:43.760Z,31.90
2017-05-25T12:22:12.128Z,32.60
2017-05-25T12:24:40.497Z,33.40
2017-05-25T12:27:08.884Z,32.50
2017-05-25T12:29:37.252Z,33.00
2017-05-25T12:32:05.647Z,33.90
2017-05-25T12:34:34.018Z,34.00
2017-05-25T12:37:02.429Z,33.40
2017-05-25T12:39:30.803Z,32.90
2017-05-25T12:41:59.179Z,33.20
2017-05-25T12:44:27.564Z,34.20
2017-05-25T12:46:55.162Z,34.30
2017-05-25T12:49:23.550Z,35.00
2017-05-25T12:51:51.916Z,34.60
2017-05-25T12:54:20.328Z,35.10
2017-05-25T12:56:48.704Z,35.30
2017-05-25T12:59:17.077Z,35.60
2017-05-25T13:01:45.469Z,36.00
2017-05-25T13:04:13.832Z,34.90
2017-05-25T13:06:42.217Z,34.50
2017-05-25T13:09:10.586Z,34.60
2017-05-25T13:11:38.996Z,35.50
2017-05-25T13:14:07.369Z,35.60
2017-05-25T13:16:35.740Z,35.30
2017-05-25T13:19:04.129Z,34.70
2017-05-25T13:21:32.499Z,34.60
2017-05-25T13:24:00.891Z,35.30
2017-05-25T13:26:29.264Z,34.90
2017-05-25T13:28:57.660Z,34.60
2017-05-25T13:31:26.024Z,34.50
2017-05-25T13:33:54.385Z,35.10
2017-05-25T13:36:22.768Z,35.50
2017-05-25T13:38:51.137Z,34.50
2017-05-25T13:41:19.521Z,34.90
2017-05-25T13:43:47.888Z,34.50
2017-05-25T13:46:16.301Z,34.00
2017-05-25T13:48:44.864Z,33.70
2017-05-25T13:51:13.228Z,34.00
2017-05-25T13:53:41.609Z,33.50
2017-05-25T13:56:09.970Z,33.40
2017-05-25T13:58:38.353Z,34.00
2017-05-25T14:01:06.719Z,34.40
2017-05-25T14:03:35.116Z,33.30
2017-05-25T14:06:03.487Z,33.70
2017-05-25T14:08:31.853Z,34.50
2017-05-25T14:11:00.239Z,34.10
2017-05-25T14:13:28.604Z,35.40
2017-05-25T14:15:56.988Z,35.60
2017-05-25T14:18:25.357Z,35.10
2017-05-25T14:20:53.754Z,34.30
2017-05-25T14:23:22.127Z,34.30
2017-05-25T14:25:50.497Z,33.70
2017-05-25T14:28:18.892Z,33.60
2017-05-25T14:30:47.256Z,34.00
2017-05-25T14:33:15.647Z,34.40
2017-05-25T14:35:44.022Z,34.40
2017-05-25T14:38:12.448Z,35.00
2017-05-25T14:40:40.811Z,33.80
2017-05-25T14:43:09.179Z,35.10
2017-05-25T14:45:37.568Z,34.80
2017-05-25T14:48:05.940Z,34.70
2017-05-25T14:50:34.329Z,35.10
2017-05-25T14:53:02.707Z,35.20
2017-05-25T14:55:36.537Z,36.00
2017-05-25T14:58:04.913Z,36.50
2017-05-25T15:00:33.282Z,35.80
2017-05-25T15:03:01.710Z,35.90
2017-05-25T15:05:30.077Z,35.30
2017-05-25T15:07:58.463Z,34.70
2017-05-25T15:10:26.838Z,35.10
2017-05-25T15:12:55.226Z,35.00
2017-05-25T15:15:23.715Z,34.80
2017-05-25T15:17:52.083Z,34.70
2017-05-25T15:20:20.477Z,35.00
2017-05-25T15:22:48.841Z,34.60
2017-05-25T15:25:17.256Z,34.10
2017-05-25T15:27:45.619Z,34.40
2017-05-25T15:30:13.987Z,34.20
2017-05-25T15:32:42.379Z,34.80
2017-05-25T15:35:10.736Z,34.50
2017-05-25T15:37:39.114Z,34.60
2017-05-25T15:40:07.479Z,35.30
2017-05-25T15:42:35.901Z,34.90
2017-05-25T15:45:04.269Z,35.00
2017-05-25T15:47:32.640Z,34.80
2017-05-25T15:50:01.028Z,34.30
2017-05-25T15:52:29.399Z,34.10
2017-05-25T15:54:57.788Z,34.50
2017-05-25T15:57:26.156Z,34.80
2017-05-25T15:59:54.575Z,34.90
2017-05-25T16:02:22.955Z,34.60
2017-05-25T16:04:51.329Z,35.00
2017-05-25T16:07:19.722Z,35.20
2017-05-25T16:09:48.091Z,35.70
2017-05-25T16:12:16.510Z,35.30
2017-05-25T16:14:44.884Z,36.40
2017-05-25T16:17:13.296Z,35.90
2017-05-25T16:19:41.660Z,35.90
2017-05-25T16:22:10.027Z,36.90
2017-05-25T16:24:38.476Z,36.50
2017-05-25T16:27:06.839Z,36.10
2017-05-25T16:29:35.230Z,36.20
2017-05-25T16:32:03.599Z,36.50
2017-05-25T16:34:32.000Z,36.20
2017-05-25T16:37:00.364Z,36.10
2017-05-25T16:39:28.733Z,36.30
2017-05-25T16:41:57.115Z,36.10
2017-05-25T16:44:25.582Z,36.20
2017-05-25T16:46:53.970Z,35.80
2017-05-25T16:49:22.366Z,36.10
2017-05-25T16:51:51.542Z,36.60
2017-05-25T16:54:19.925Z,36.20
2017-05-25T16:56:48.374Z,36.80
2017-05-25T16:59:16.763Z,36.90
2017-05-25T17:01:45.126Z,35.50
2017-05-25T17:04:13.512Z,34.20
2017-05-25T17:06:41.942Z,32.20
2017-05-25T17:09:10.331Z,30.00
2017-05-25T17:11:38.744Z,29.50
2017-05-25T17:14:07.144Z,28.20
2017-05-25T17:16:35.580Z,27.70
2017-05-25T17:19:04.035Z,26.90
2017-05-25T17:21:32.435Z,25.40
2017-05-25T17:24:00.878Z,25.50
2017-05-25T17:26:29.274Z,25.60
2017-05-25T17:28:57.684Z,24.70
2017-05-25T17:31:26.048Z,24.40
2017-05-25T17:33:54.445Z,24.60
2017-05-25T17:36:22.811Z,24.10
2017-05-25T17:38:51.217Z,24.50
2017-05-25T17:41:19.600Z,25.10
2017-05-25T17:43:48.095Z,24.80
2017-05-25T17:46:16.531Z,24.40
2017-05-25T17:48:44.963Z,24.40
2017-05-25T17:51:13.403Z,24.50
2017-05-25T17:53:41.780Z,24.10
2017-05-25T17:56:10.193Z,23.80
2017-05-25T17:58:38.628Z,23.60
2017-05-25T18:01:07.043Z,24.10
2017-05-25T18:03:35.404Z,24.20
2017-05-25T18:06:03.003Z,24.20
2017-05-25T18:08:31.391Z,24.10
2017-05-25T18:10:59.755Z,24.20
2017-05-25T18:13:28.139Z,24.80
2017-05-25T18:15:56.502Z,25.20
2017-05-25T18:18:24.911Z,25.50
2017-05-25T18:20:53.280Z,26.20
2017-05-25T18:23:21.686Z,26.50
2017-05-25T18:25:50.072Z,26.60
2017-05-25T18:28:18.447Z,26.20
2017-05-25T18:30:46.826Z,26.30
2017-05-25T18:33:15.205Z,27.60
2017-05-25T18:35:43.607Z,29.10
2017-05-25T18:38:12.246Z,30.70
2017-05-25T18:40:40.608Z,32.40
2017-05-25T18:43:08.990Z,34.10
2017-05-25T18:45:37.387Z,35.60
2017-05-25T18:48:05.772Z,37.10
2017-05-25T18:50:34.142Z,38.80
2017-05-25T18:53:02.531Z,39.10
2017-05-25T18:55:30.916Z,40.00
2017-05-25T18:57:59.299Z,40.80
2017-05-25T19:00:27.692Z,41.70
2017-05-25T19:02:56.121Z,42.60
2017-05-25T19:05:24.570Z,43.30
2017-05-25T19:07:52.935Z,44.00
2017-05-25T19:10:21.308Z,44.50
2017-05-25T19:12:49.714Z,45.10
2017-05-25T19:15:18.100Z,46.00
2017-05-25T19:17:46.500Z,46.30
2017-05-25T19:20:14.868Z,46.60
2017-05-25T19:22:43.259Z,47.20
2017-05-25T19:25:11.625Z,47.70
2017-05-25T19:27:39.992Z,48.40
2017-05-25T19:30:09.135Z,49.00
2017-05-25T19:32:37.506Z,49.50
2017-05-25T19:35:05.911Z,49.80
2017-05-25T19:37:34.280Z,50.90
2017-05-25T19:40:02.676Z,51.00
2017-05-25T19:42:31.039Z,51.50
2017-05-25T19:44:59.412Z,52.30
2017-05-25T19:47:27.798Z,52.50
2017-05-25T19:49:56.167Z,52.60
2017-05-25T19:52:24.553Z,53.10
2017-05-25T19:54:52.917Z,53.70
2017-05-25T19:57:21.315Z,53.70
2017-05-25T19:59:49.676Z,53.60
2017-05-25T20:02:18.034Z,54.10
2017-05-25T20:04:46.424Z,55.00
2017-05-25T20:07:14.779Z,55.00
2017-05-25T20:09:43.179Z,55.40
2017-05-25T20:12:11.543Z,55.30
2017-05-25T20:14:39.962Z,55.70
2017-05-25T20:17:08.327Z,56.70
2017-05-25T20:19:36.686Z,56.30
2017-05-25T20:22:05.105Z,56.50
2017-05-25T20:24:33.484Z,56.80
2017-05-25T20:27:01.878Z,57.20
2017-05-25T20:29:30.252Z,57.30
2017-05-25T20:31:58.671Z,57.50
2017-05-25T20:34:27.039Z,57.90
2017-05-25T20:36:55.406Z,58.30
2017-05-25T20:39:24.364Z,58.40
2017-05-25T20:41:52.728Z,58.70
2017-05-25T20:44:23.643Z,59.00
2017-05-25T20:46:52.052Z,59.20
2017-05-25T20:49:20.471Z,60.00
2017-05-25T20:51:48.831Z,59.60
2017-05-25T20:54:19.968Z,60.00
2017-05-25T20:56:48.332Z,60.30
2017-05-25T20:59:16.703Z,61.00
2017-05-25T21:01:45.092Z,61.00
2017-05-25T21:04:13.548Z,61.20
2017-05-25T21:06:41.933Z,61.40
2017-05-25T21:09:10.312Z,61.80
2017-05-25T21:11:38.704Z,62.10
2017-05-25T21:14:07.067Z,62.70
2017-05-25T21:16:36.607Z,63.20
2017-05-25T21:19:04.995Z,63.60
2017-05-25T21:21:33.356Z,63.70
2017-05-25T21:24:02.808Z,64.30
2017-05-25T21:26:31.216Z,65.00
2017-05-25T21:28:59.635Z,65.20
2017-05-25T21:31:28.004Z,64.80
2017-05-25T21:33:56.365Z,64.70
2017-05-25T21:36:24.748Z,65.20
2017-05-25T21:38:53.139Z,65.50
2017-05-25T21:41:21.522Z,65.60
2017-05-25T21:43:49.886Z,65.70
2017-05-25T21:46:18.294Z,66.10
2017-05-25T21:48:46.662Z,66.40
2017-05-25T21:51:15.031Z,66.60
2017-05-25T21:53:43.414Z,67.00
2017-05-25T21:56:11.784Z,67.20
2017-05-25T21:58:40.324Z,67.70
2017-05-25T22:01:08.700Z,68.30
2017-05-25T22:03:37.122Z,68.70
2017-05-25T22:06:05.498Z,69.50
2017-05-25T22:08:33.882Z,69.40
2017-05-25T22:11:02.273Z,69.30
2017-05-25T22:13:30.651Z,69.40
2017-05-25T22:15:59.046Z,69.50
2017-05-25T22:18:27.420Z,69.60
2017-05-25T22:20:55.851Z,70.10
2017-05-25T22:23:24.221Z,70.30
2017-05-25T22:25:52.600Z,70.50
2017-05-25T22:28:20.987Z,70.40
2017-05-25T22:30:49.359Z,70.30
2017-05-25T22:33:17.963Z,70.20
2017-05-25T22:35:46.328Z,70.20
2017-05-25T22:38:14.746Z,70.40
2017-05-25T22:40:46.051Z,70.70
2017-05-25T22:43:14.499Z,71.00
2017-05-25T22:45:42.899Z,71.30
2017-05-25T22:48:11.266Z,71.70
2017-05-25T22:50:39.684Z,71.90
2017-05-25T22:53:08.047Z,71.80
2017-05-25T22:55:36.438Z,71.70
2017-05-25T22:58:04.827Z,71.70
2017-05-25T23:00:33.216Z,71.70
2017-05-25T23:03:01.580Z,71.80
2017-05-25T23:05:29.956Z,71.90
2017-05-25T23:07:58.348Z,72.00
2017-05-25T23:10:26.785Z,72.20
2017-05-25T23:12:55.166Z,72.20
2017-05-25T23:15:23.556Z,72.20
2017-05-25T23:17:51.958Z,72.30
2017-05-25T23:20:20.316Z,72.20
2017-05-25T23:22:48.696Z,73.30
2017-05-25T23:25:17.080Z,72.80
2017-05-25T23:27:45.445Z,72.90
2017-05-25T23:30:13.840Z,72.90
2017-05-25T23:32:42.205Z,72.80
2017-05-25T23:35:10.624Z,73.00
2017-05-25T23:37:38.988Z,73.20
2017-05-25T23:40:07.353Z,73.30
2017-05-25T23:42:35.747Z,73.40
2017-05-25T23:45:04.187Z,73.40
2017-05-25T23:47:32.575Z,73.50
2017-05-25T23:50:00.955Z,73.50
2017-05-25T23:52:29.370Z,73.60
2017-05-25T23:54:57.812Z,73.80
2017-05-25T23:57:26.181Z,73.80
2017-05-25T23:59:54.589Z,73.90
